Time;durP1;ratioP1;P1;durP2;ratioP2;P2;SDS_P1;SDS_P2;PMS_P1;PMS_P2;Temp;Humidity;BMP_temperature;BMP_pressure;BME280_temperature;BME280_humidity;BME280_pressure;Samples;Min_cycle;Max_cycle;Signal;HPM_P1;HPM_P2
2022/01/08 00:00:21;;;;;;;33.83;19.33;;;;;;;5.06;nan;-23957.97;5054662;28;20261;-67
2022/01/08 00:02:46;;;;;;;34.80;18.37;;;;;;;4.64;nan;-23946.16;5055180;28;20281;-67
2022/01/08 00:05:12;;;;;;;34.97;18.77;;;;;;;4.72;nan;-23948.44;5054776;28;20624;-67
2022/01/08 00:07:37;;;;;;;31.43;17.60;;;;;;;4.51;nan;-23942.47;5054703;28;20232;-67
2022/01/08 00:10:04;;;;;;;32.03;17.77;;;;;;;4.55;nan;-23943.47;5054989;28;20262;-67
2022/01/08 00:12:29;;;;;;;30.13;17.67;;;;;;;4.54;nan;-23943.31;5053796;28;20261;-67
2022/01/08 00:14:55;;;;;;;27.07;17.03;;;;;;;4.45;nan;-23940.75;5054527;28;20324;-67
2022/01/08 00:17:22;;;;;;;28.80;17.13;;;;;;;4.44;nan;-23940.63;5054023;28;20686;-67
2022/01/08 00:19:51;;;;;;;31.23;17.87;;;;;;;4.56;nan;-23943.75;5054233;28;20181;-66
2022/01/08 00:22:17;;;;;;;31.87;17.00;;;;;;;4.81;nan;-23951.00;5035893;28;20186;-67
2022/01/08 00:24:42;;;;;;;29.07;16.87;;;;;;;4.91;nan;-23953.72;5053444;28;20650;-67
2022/01/08 00:27:08;;;;;;;33.00;17.93;;;;;;;4.43;nan;-23940.34;5053572;28;20550;-67
2022/01/08 00:29:33;;;;;;;25.23;16.03;;;;;;;4.34;nan;-23937.78;5053485;28;20198;-67
2022/01/08 00:31:59;;;;;;;28.63;15.80;;;;;;;4.55;nan;-23943.47;5053650;28;20179;-67
2022/01/08 00:34:24;;;;;;;28.10;16.40;;;;;;;4.98;nan;-23955.56;5053315;28;20175;-67
2022/01/08 00:36:50;;;;;;;26.37;15.73;;;;;;;4.58;nan;-23944.47;5053457;28;20182;-67
2022/01/08 00:39:15;;;;;;;26.70;15.13;;;;;;;4.36;nan;-23938.34;5053542;28;20642;-66
2022/01/08 00:41:41;;;;;;;28.90;16.07;;;;;;;4.43;nan;-23940.34;5054575;28;20202;-67
2022/01/08 00:44:06;;;;;;;26.73;15.60;;;;;;;4.92;nan;-23953.84;5054229;28;20171;-66
2022/01/08 00:46:32;;;;;;;25.67;15.40;;;;;;;5.09;nan;-23958.69;5054166;28;20179;-66
2022/01/08 00:48:57;;;;;;;29.53;16.00;;;;;;;5.26;nan;-23963.66;5054413;28;20222;-66
2022/01/08 00:51:22;;;;;;;26.23;14.07;;;;;;;4.85;nan;-23952.00;5054176;28;20219;-66
2022/01/08 00:53:48;;;;;;;23.37;14.07;;;;;;;5.04;nan;-23957.41;5053959;28;20181;-66
2022/01/08 00:56:14;;;;;;;22.47;13.90;;;;;;;5.33;nan;-23965.66;5054573;28;20198;-67
2022/01/08 00:58:41;;;;;;;23.70;13.70;;;;;;;4.94;nan;-23954.56;5047677;28;20240;-65
2022/01/08 01:01:07;;;;;;;23.43;13.97;;;;;;;5.39;nan;-23967.06;5053976;28;20189;-66
2022/01/08 01:03:32;;;;;;;23.40;14.33;;;;;;;4.96;nan;-23955.13;5054176;28;20186;-66
2022/01/08 01:05:58;;;;;;;23.57;13.77;;;;;;;5.56;nan;-23972.06;5053945;28;20259;-66
2022/01/08 01:08:23;;;;;;;22.20;13.97;;;;;;;5.28;nan;-23964.22;5053698;28;20273;-66
2022/01/08 01:10:48;;;;;;;23.63;13.57;;;;;;;5.37;nan;-23966.66;5054032;28;20320;-66
2022/01/08 01:13:14;;;;;;;25.37;14.30;;;;;;;5.39;nan;-23967.22;5053746;28;20225;-66
2022/01/08 01:15:39;;;;;;;26.93;14.57;;;;;;;5.31;nan;-23965.09;5054030;28;20685;-66
2022/01/08 01:18:05;;;;;;;27.03;15.13;;;;;;;5.38;nan;-23966.78;5053975;28;20675;-66
2022/01/08 01:20:31;;;;;;;24.83;14.80;;;;;;;5.21;nan;-23962.25;5053763;28;20240;-66
2022/01/08 01:23:07;;;;;;;24.87;14.30;;;;;;;5.09;nan;-23958.69;5053888;28;20664;-66
2022/01/08 01:25:37;;;;;;;24.43;13.97;;;;;;;5.11;nan;-23959.41;5053755;28;20190;-66
2022/01/08 01:31:01;;;;;;;27.33;14.87;;;;;;;4.76;nan;-23949.44;5053570;28;20505;-66
2022/01/08 01:41:55;;;;;;;29.43;16.07;;;;;;;4.85;nan;-23952.16;5053691;28;20174;-66
2022/01/08 01:47:01;;;;;;;27.07;15.97;;;;;;;4.84;nan;-23951.72;5053551;28;20190;-66
2022/01/08 01:49:27;;;;;;;27.67;15.87;;;;;;;4.98;nan;-23955.69;5053423;28;20195;-65
2022/01/08 01:51:53;;;;;;;27.97;16.67;;;;;;;4.57;nan;-23944.19;5053129;28;20236;-66
2022/01/08 01:54:18;;;;;;;29.23;16.13;;;;;;;4.50;nan;-23942.03;5053315;28;20171;-65
2022/01/08 01:56:44;;;;;;;31.00;16.03;;;;;;;4.93;nan;-23954.13;5052862;28;20176;-66
2022/01/08 01:59:09;;;;;;;33.03;16.80;;;;;;;5.36;nan;-23966.38;5052883;28;20185;-66
2022/01/08 02:01:35;;;;;;;27.80;16.07;;;;;;;4.89;nan;-23953.13;5052815;28;20617;-66
2022/01/08 02:04:00;;;;;;;30.30;16.87;;;;;;;5.44;nan;-23968.63;5045313;28;20234;-66
2022/01/08 02:06:26;;;;;;;30.43;16.30;;;;;;;5.02;nan;-23956.69;5042576;28;20178;-66
2022/01/08 02:08:51;;;;;;;30.73;15.67;;;;;;;5.46;nan;-23969.22;5043446;28;20689;-66
2022/01/08 02:11:19;;;;;;;30.20;16.50;;;;;;;5.45;nan;-23968.78;5047839;28;20221;-66
2022/01/08 02:13:45;;;;;;;27.80;16.10;;;;;;;5.04;nan;-23957.41;5053002;28;20202;-66
2022/01/08 02:16:17;;;;;;;29.70;16.57;;;;;;;5.22;nan;-23962.53;5053007;28;20251;-66
2022/01/08 02:18:46;;;;;;;26.90;15.67;;;;;;;5.49;nan;-23969.91;5052451;28;20717;-66
2022/01/08 02:21:13;;;;;;;30.20;16.57;;;;;;;5.48;nan;-23969.78;5053120;28;20199;-66
2022/01/08 02:23:40;;;;;;;30.03;16.50;;;;;;;5.04;nan;-23957.25;5052523;28;20169;-66
2022/01/08 02:26:07;;;;;;;30.70;17.10;;;;;;;4.87;nan;-23952.72;5052933;28;20178;-66
2022/01/08 02:28:34;;;;;;;31.10;16.97;;;;;;;5.23;nan;-23962.66;5052433;28;20209;-66
2022/01/08 02:31:00;;;;;;;32.27;18.30;;;;;;;5.05;nan;-23957.53;5052484;28;20725;-66
2022/01/08 02:33:26;;;;;;;30.80;18.43;;;;;;;5.37;nan;-23966.50;5052427;28;20253;-66
2022/01/08 02:35:52;;;;;;;35.70;18.63;;;;;;;4.94;nan;-23954.41;5052877;28;20186;-65
2022/01/08 02:38:18;;;;;;;33.00;17.97;;;;;;;5.43;nan;-23968.22;5052537;28;20621;-65
2022/01/08 02:40:52;;;;;;;35.83;18.20;;;;;;;4.90;nan;-23953.44;5052085;28;20174;-66
2022/01/08 02:43:18;;;;;;;35.87;18.60;;;;;;;5.14;nan;-23960.09;5052442;28;20648;-66
2022/01/08 02:45:43;;;;;;;33.93;19.07;;;;;;;5.39;nan;-23967.06;5052286;28;20170;-66
2022/01/08 02:48:10;;;;;;;36.50;19.00;;;;;;;5.00;nan;-23956.25;5052303;28;20183;-65
2022/01/08 02:50:35;;;;;;;36.27;19.10;;;;;;;5.42;nan;-23967.94;5052043;28;20170;-65
2022/01/08 02:53:00;;;;;;;33.90;18.97;;;;;;;5.00;nan;-23956.25;5052501;28;20245;-66
2022/01/08 02:55:26;;;;;;;36.33;19.63;;;;;;;4.94;nan;-23954.56;5052046;28;20638;-66
2022/01/08 02:57:51;;;;;;;35.93;19.50;;;;;;;5.02;nan;-23956.84;5051976;28;20228;-66
2022/01/08 03:00:19;;;;;;;37.43;19.53;;;;;;;4.93;nan;-23954.13;5051523;28;20563;-66
2022/01/08 03:02:50;;;;;;;35.40;19.33;;;;;;;5.27;nan;-23963.81;5051972;28;20214;-66
2022/01/08 03:05:16;;;;;;;36.63;18.67;;;;;;;5.27;nan;-23963.81;5052119;28;20163;-66
2022/01/08 03:07:43;;;;;;;38.07;20.50;;;;;;;5.00;nan;-23956.25;5051757;28;20265;-66
2022/01/08 03:10:15;;;;;;;35.93;19.53;;;;;;;4.74;nan;-23948.88;5052026;28;20644;-66
2022/01/08 03:12:42;;;;;;;38.40;20.70;;;;;;;5.07;nan;-23958.25;5050510;28;20179;-66
2022/01/08 03:15:15;;;;;;;37.17;19.93;;;;;;;4.66;nan;-23946.59;5051301;28;20159;-66
2022/01/08 03:17:42;;;;;;;41.97;19.77;;;;;;;4.90;nan;-23953.44;5051348;28;20220;-65
2022/01/08 03:20:11;;;;;;;38.87;20.07;;;;;;;5.02;nan;-23956.84;5051504;28;20228;-66
2022/01/08 03:22:38;;;;;;;37.80;20.10;;;;;;;4.69;nan;-23947.59;5050956;28;20204;-65
2022/01/08 03:25:05;;;;;;;40.40;21.07;;;;;;;4.74;nan;-23948.88;5051136;28;20644;-65
2022/01/08 03:27:30;;;;;;;39.57;20.77;;;;;;;5.18;nan;-23961.25;5050826;28;20555;-65
2022/01/08 03:29:56;;;;;;;37.80;18.83;;;;;;;4.65;nan;-23946.31;5051151;28;20202;-65
2022/01/08 03:32:22;;;;;;;33.10;18.77;;;;;;;4.97;nan;-23955.28;5050843;28;20181;-65
2022/01/08 03:34:47;;;;;;;37.47;19.73;;;;;;;5.03;nan;-23956.97;5051018;28;20295;-66
2022/01/08 03:37:13;;;;;;;36.53;19.43;;;;;;;5.17;nan;-23960.97;5051010;28;20175;-66
2022/01/08 03:39:38;;;;;;;37.50;19.63;;;;;;;5.11;nan;-23959.41;5050868;28;20228;-66
2022/01/08 03:42:04;;;;;;;36.73;19.10;;;;;;;4.57;nan;-23944.03;5050754;28;20228;-66
2022/01/08 03:44:30;;;;;;;37.27;18.83;;;;;;;4.93;nan;-23954.28;5049781;28;20175;-66
2022/01/08 03:47:11;;;;;;;37.90;18.20;;;;;;;5.00;nan;-23956.13;5050188;28;20253;-66
2022/01/08 03:49:36;;;;;;;35.27;18.30;;;;;;;4.66;nan;-23946.59;5049880;28;20194;-66
2022/01/08 03:52:02;;;;;;;37.20;18.87;;;;;;;5.02;nan;-23956.69;5050044;28;20275;-66
2022/01/08 03:54:28;;;;;;;36.07;18.07;;;;;;;4.95;nan;-23954.72;5050501;28;20332;-66
2022/01/08 03:56:53;;;;;;;37.23;18.00;;;;;;;4.99;nan;-23956.00;5050090;28;20265;-66
2022/01/08 03:59:19;;;;;;;35.60;17.97;;;;;;;4.98;nan;-23955.56;5050223;28;20175;-66
2022/01/08 04:01:44;;;;;;;35.00;18.47;;;;;;;4.99;nan;-23956.00;5050563;28;20233;-66
2022/01/08 04:04:09;;;;;;;32.73;17.07;;;;;;;4.76;nan;-23949.44;5049353;28;20656;-66
2022/01/08 04:06:35;;;;;;;31.47;16.13;;;;;;;4.41;nan;-23939.75;5049736;28;20182;-66
2022/01/08 04:09:00;;;;;;;37.10;18.23;;;;;;;4.41;nan;-23939.75;5049857;28;20348;-66
2022/01/08 04:11:26;;;;;;;29.73;16.53;;;;;;;4.78;nan;-23950.16;5050217;28;20615;-66
2022/01/08 04:13:54;;;;;;;35.73;17.33;;;;;;;4.90;nan;-23953.56;5051083;28;20562;-66
2022/01/08 04:16:25;;;;;;;32.83;16.27;;;;;;;4.94;nan;-23954.41;5051036;28;20174;-66
2022/01/08 04:18:50;;;;;;;29.97;16.77;;;;;;;4.90;nan;-23953.44;5050800;28;20155;-65
2022/01/08 04:23:41;;;;;;;35.30;17.83;;;;;;;4.56;nan;-23943.88;5050907;28;20178;-65
2022/01/08 04:26:06;;;;;;;32.57;18.37;;;;;;;4.58;nan;-23944.31;5051213;28;20175;-65
2022/01/08 04:28:32;;;;;;;32.87;18.20;;;;;;;5.06;nan;-23957.97;5050937;28;20303;-66
2022/01/08 04:30:57;;;;;;;33.30;17.60;;;;;;;5.09;nan;-23958.81;5050857;28;20245;-65
2022/01/08 04:33:23;;;;;;;34.80;17.67;;;;;;;4.78;nan;-23950.00;5050796;28;20173;-66
2022/01/08 04:35:48;;;;;;;32.67;17.80;;;;;;;5.07;nan;-23958.25;5051496;28;20244;-67
2022/01/08 04:38:13;;;;;;;34.40;18.00;;;;;;;4.95;nan;-23954.84;5050784;28;20182;-66
2022/01/08 04:40:40;;;;;;;34.00;17.17;;;;;;;4.96;nan;-23955.00;5051162;28;20526;-66
2022/01/08 04:43:06;;;;;;;29.97;17.30;;;;;;;5.44;nan;-23968.63;5053656;28;20167;-66
2022/01/08 04:45:31;;;;;;;33.97;18.03;;;;;;;5.42;nan;-23967.94;5054876;28;20182;-66
2022/01/08 04:47:59;;;;;;;30.87;17.47;;;;;;;5.48;nan;-23969.63;5054257;28;20315;-66
2022/01/08 04:50:27;;;;;;;29.10;16.53;;;;;;;5.43;nan;-23968.34;5054652;28;20250;-66
2022/01/08 04:52:52;;;;;;;32.30;17.33;;;;;;;5.49;nan;-23969.91;5054642;28;20712;-67
2022/01/08 04:55:18;;;;;;;29.97;16.83;;;;;;;5.47;nan;-23969.34;5054703;28;20183;-67
2022/01/08 04:57:43;;;;;;;29.77;16.67;;;;;;;5.05;nan;-23957.53;5054290;28;20614;-65
2022/01/08 05:00:09;;;;;;;30.80;16.63;;;;;;;5.03;nan;-23956.97;5054623;28;20174;-65
2022/01/08 05:02:35;;;;;;;29.20;17.00;;;;;;;5.11;nan;-23959.25;5053549;28;20167;-65
2022/01/08 05:05:00;;;;;;;33.07;17.20;;;;;;;5.45;nan;-23968.94;5054201;28;20182;-66
2022/01/08 05:07:26;;;;;;;32.67;17.77;;;;;;;5.37;nan;-23966.50;5054308;28;20167;-66
2022/01/08 05:09:51;;;;;;;30.30;17.03;;;;;;;5.56;nan;-23971.91;5036406;28;20214;-66
2022/01/08 05:12:17;;;;;;;32.70;17.93;;;;;;;5.13;nan;-23959.81;5054278;28;20175;-66
2022/01/08 05:14:44;;;;;;;36.33;19.93;;;;;;;5.04;nan;-23957.25;5054161;28;20552;-66
2022/01/08 05:17:09;;;;;;;40.87;22.20;;;;;;;5.50;nan;-23970.34;5053671;28;20579;-66
2022/01/08 05:19:53;;;;;;;39.03;20.33;;;;;;;5.50;nan;-23970.22;5053603;28;20220;-66
2022/01/08 05:22:29;;;;;;;33.90;19.20;;;;;;;5.54;nan;-23971.34;5054148;28;20170;-66
2022/01/08 05:24:56;;;;;;;32.63;17.37;;;;;;;4.98;nan;-23955.69;5053751;28;20626;-66
2022/01/08 05:27:22;;;;;;;38.97;19.90;;;;;;;5.42;nan;-23968.06;5053877;28;20174;-66
2022/01/08 05:29:50;;;;;;;35.33;19.10;;;;;;;5.28;nan;-23964.09;5053147;28;20659;-66
2022/01/08 05:32:17;;;;;;;36.43;18.97;;;;;;;5.11;nan;-23959.25;5053795;28;20252;-67
2022/01/08 05:34:47;;;;;;;36.30;19.43;;;;;;;5.49;nan;-23970.06;5053676;28;20260;-67
2022/01/08 05:37:13;;;;;;;30.60;17.10;;;;;;;5.40;nan;-23967.50;5053847;28;20310;-67
2022/01/08 05:39:40;;;;;;;36.57;18.20;;;;;;;4.96;nan;-23955.13;5053924;28;20241;-67
2022/01/08 05:42:06;;;;;;;33.17;18.20;;;;;;;5.25;nan;-23963.38;5053515;28;20193;-67
2022/01/08 05:44:31;;;;;;;33.83;17.87;;;;;;;4.94;nan;-23954.56;5053405;28;20190;-67
2022/01/08 05:46:57;;;;;;;34.23;18.30;;;;;;;5.02;nan;-23956.84;5053396;28;20178;-67
2022/01/08 05:49:22;;;;;;;34.53;18.20;;;;;;;5.09;nan;-23958.81;5053142;28;20256;-67
2022/01/08 05:51:48;;;;;;;37.57;19.13;;;;;;;5.54;nan;-23971.34;5053178;28;20621;-67
2022/01/08 05:54:13;;;;;;;37.13;19.83;;;;;;;5.43;nan;-23968.34;5052045;28;20213;-67
2022/01/08 05:56:39;;;;;;;36.77;19.63;;;;;;;5.52;nan;-23970.78;5052841;28;20171;-67
2022/01/08 05:59:04;;;;;;;34.30;17.57;;;;;;;5.68;nan;-23975.47;5053532;28;20175;-67
2022/01/08 06:01:32;;;;;;;37.27;20.00;;;;;;;5.72;nan;-23976.59;5053278;28;20175;-67
2022/01/08 06:03:57;;;;;;;34.20;18.77;;;;;;;5.82;nan;-23979.31;5053100;28;20232;-65
2022/01/08 06:06:23;;;;;;;35.13;19.73;;;;;;;5.36;nan;-23966.22;5053127;28;20642;-66
2022/01/08 06:08:48;;;;;;;33.83;20.07;;;;;;;5.71;nan;-23976.31;5045799;28;20210;-67
2022/01/08 06:11:13;;;;;;;34.47;19.27;;;;;;;5.34;nan;-23965.78;5052962;28;20208;-67
2022/01/08 06:13:39;;;;;;;35.43;20.43;;;;;;;5.42;nan;-23967.94;5053045;28;20471;-68
2022/01/08 06:16:04;;;;;;;35.27;19.07;;;;;;;5.39;nan;-23967.22;5053057;28;20241;-67
2022/01/08 06:18:31;;;;;;;37.07;20.27;;;;;;;5.39;nan;-23967.06;5052576;28;20630;-65
2022/01/08 06:20:59;;;;;;;35.77;19.33;;;;;;;5.75;nan;-23977.31;5052605;28;20560;-66
2022/01/08 06:23:25;;;;;;;35.33;19.67;;;;;;;5.78;nan;-23978.31;5052562;28;20656;-67
2022/01/08 06:25:51;;;;;;;37.67;19.30;;;;;;;5.84;nan;-23979.88;5046428;28;20186;-68
2022/01/08 06:28:16;;;;;;;37.77;19.20;;;;;;;5.80;nan;-23978.72;5052516;28;20206;-68
2022/01/08 06:30:41;;;;;;;36.87;19.67;;;;;;;5.57;nan;-23972.19;5052439;28;20178;-68
2022/01/08 06:33:07;;;;;;;36.87;19.13;;;;;;;5.78;nan;-23978.16;5052434;28;20178;-68
2022/01/08 06:35:32;;;;;;;37.47;20.90;;;;;;;5.85;nan;-23980.16;5051875;28;20224;-67
2022/01/08 06:37:58;;;;;;;42.23;21.80;;;;;;;5.85;nan;-23980.00;5052515;28;20236;-67
2022/01/08 06:40:23;;;;;;;43.77;21.93;;;;;;;5.34;nan;-23965.94;5052593;28;20175;-67
2022/01/08 06:42:49;;;;;;;41.80;22.40;;;;;;;5.74;nan;-23977.16;5052472;28;20166;-70
2022/01/08 06:45:14;;;;;;;44.00;22.20;;;;;;;5.37;nan;-23966.66;5050806;28;20218;-68
2022/01/08 06:47:42;;;;;;;45.40;23.77;;;;;;;5.42;nan;-23968.06;5051469;28;20159;-68
2022/01/08 06:50:07;;;;;;;52.43;24.53;;;;;;;5.88;nan;-23981.00;5051642;28;20206;-68
2022/01/08 06:52:33;;;;;;;45.00;23.13;;;;;;;5.96;nan;-23983.13;5046524;28;20257;-68
2022/01/08 06:54:59;;;;;;;46.10;23.93;;;;;;;5.93;nan;-23982.44;5047899;28;20529;-68
2022/01/08 06:57:24;;;;;;;47.73;23.60;;;;;;;5.72;nan;-23976.47;5051425;28;20218;-68
2022/01/08 06:59:50;;;;;;;47.03;24.57;;;;;;;6.00;nan;-23984.28;5051581;28;20167;-68
2022/01/08 07:02:15;;;;;;;44.60;22.77;;;;;;;6.03;nan;-23985.28;5051516;28;20210;-67
2022/01/08 07:04:41;;;;;;;43.37;22.33;;;;;;;6.12;nan;-23987.69;5051255;28;20182;-67
2022/01/08 07:07:06;;;;;;;42.13;22.23;;;;;;;6.13;nan;-23987.97;5051476;28;20174;-67
2022/01/08 07:09:31;;;;;;;46.13;22.43;;;;;;;6.18;nan;-23989.53;5050822;28;20637;-69
2022/01/08 07:11:57;;;;;;;46.83;23.03;;;;;;;5.82;nan;-23979.31;5051546;28;20174;-68
2022/01/08 07:14:22;;;;;;;43.50;22.20;;;;;;;6.09;nan;-23986.84;5051489;28;20186;-68
2022/01/08 07:16:49;;;;;;;45.30;22.27;;;;;;;6.19;nan;-23989.69;5051435;28;20174;-68
2022/01/08 07:19:14;;;;;;;39.17;21.17;;;;;;;6.36;nan;-23994.34;5044731;28;20178;-67
2022/01/08 07:21:40;;;;;;;42.10;21.60;;;;;;;6.29;nan;-23992.50;5051567;28;20640;-68
2022/01/08 07:24:05;;;;;;;38.77;21.27;;;;;;;6.32;nan;-23993.38;5050792;28;20224;-67
2022/01/08 07:26:30;;;;;;;38.03;20.67;;;;;;;5.94;nan;-23982.72;5051097;28;20211;-68
2022/01/08 07:28:56;;;;;;;41.87;21.20;;;;;;;6.16;nan;-23988.97;5051023;28;20285;-67
2022/01/08 07:31:22;;;;;;;39.30;20.67;;;;;;;5.86;nan;-23980.44;5051076;28;20163;-68
2022/01/08 07:33:49;;;;;;;41.73;20.50;;;;;;;6.18;nan;-23989.53;5051267;28;20154;-67
2022/01/08 07:36:17;;;;;;;39.23;20.43;;;;;;;5.97;nan;-23983.41;5051002;28;20151;-68
2022/01/08 07:38:43;;;;;;;42.03;21.13;;;;;;;6.50;nan;-23998.34;5050802;28;20167;-68
2022/01/08 07:41:08;;;;;;;42.10;21.33;;;;;;;6.56;nan;-24000.19;5050843;28;20181;-68
2022/01/08 07:43:33;;;;;;;38.97;21.13;;;;;;;6.24;nan;-23991.09;5051204;28;20162;-68
2022/01/08 07:45:59;;;;;;;39.13;21.33;;;;;;;6.71;nan;-24004.16;5050929;28;20634;-68
2022/01/08 07:48:24;;;;;;;36.97;19.60;;;;;;;6.69;nan;-24003.59;5050642;28;20214;-68
2022/01/08 07:50:50;;;;;;;40.63;20.13;;;;;;;6.16;nan;-23988.81;5050717;28;20174;-68
2022/01/08 07:53:15;;;;;;;37.27;20.27;;;;;;;6.26;nan;-23991.53;5032931;28;20666;-69
2022/01/08 07:55:41;;;;;;;42.00;22.00;;;;;;;6.65;nan;-24002.59;5041660;28;20184;-68
2022/01/08 07:58:06;;;;;;;41.73;21.70;;;;;;;6.14;nan;-23988.41;5044848;28;20265;-68
2022/01/08 08:00:31;;;;;;;43.97;21.47;;;;;;;6.19;nan;-23989.69;5049726;28;20543;-68
2022/01/08 08:02:57;;;;;;;42.33;22.17;;;;;;;6.67;nan;-24003.16;5050961;28;20178;-68
2022/01/08 08:05:22;;;;;;;46.20;23.47;;;;;;;6.47;nan;-23997.47;5051108;28;20196;-68
2022/01/08 08:07:48;;;;;;;46.43;21.97;;;;;;;6.24;nan;-23990.94;5050924;28;20182;-68
2022/01/08 08:10:17;;;;;;;43.37;22.03;;;;;;;6.62;nan;-24001.75;5050421;28;20710;-68
2022/01/08 08:12:44;;;;;;;50.10;22.63;;;;;;;6.11;nan;-23987.53;5043808;28;20186;-67
2022/01/08 08:15:15;;;;;;;51.80;22.67;;;;;;;6.36;nan;-23994.34;5050955;28;20187;-67
2022/01/08 08:17:41;;;;;;;46.83;21.97;;;;;;;6.04;nan;-23985.56;5053150;28;20637;-68
2022/01/08 08:20:07;;;;;;;49.73;24.40;;;;;;;6.69;nan;-24003.72;5054267;28;20607;-69
2022/01/08 08:22:33;;;;;;;50.70;23.57;;;;;;;6.62;nan;-24001.88;5054478;28;20198;-67
2022/01/08 08:24:58;;;;;;;47.20;22.77;;;;;;;6.24;nan;-23991.09;5036628;28;20517;-68
2022/01/08 08:27:24;;;;;;;43.60;21.37;;;;;;;6.67;nan;-24003.16;5054408;28;20546;-68
2022/01/08 08:29:49;;;;;;;49.50;22.60;;;;;;;6.68;nan;-24003.44;5054277;28;20225;-68
2022/01/08 08:32:14;;;;;;;45.80;23.20;;;;;;;6.33;nan;-23993.66;5054549;28;20246;-69
2022/01/08 08:34:40;;;;;;;44.13;21.77;;;;;;;6.42;nan;-23996.22;5054706;28;20688;-69
2022/01/08 08:37:06;;;;;;;35.70;19.37;;;;;;;6.93;nan;-24010.53;5053601;28;20272;-68
2022/01/08 08:39:31;;;;;;;31.83;17.87;;;;;;;6.89;nan;-24009.41;5054203;28;20711;-68
2022/01/08 08:41:57;;;;;;;35.77;19.27;;;;;;;6.41;nan;-23995.78;5054366;28;20245;-69
2022/01/08 08:44:22;;;;;;;33.27;18.63;;;;;;;6.49;nan;-23998.19;5053844;28;20166;-68
2022/01/08 08:46:48;;;;;;;34.50;19.53;;;;;;;6.97;nan;-24011.66;5054215;28;20206;-70
2022/01/08 08:49:13;;;;;;;35.57;20.67;;;;;;;7.06;nan;-24014.09;5053919;28;20275;-70
2022/01/08 08:51:39;;;;;;;36.90;21.07;;;;;;;6.96;nan;-24011.25;5035213;28;20706;-69
2022/01/08 08:54:04;;;;;;;34.10;19.10;;;;;;;7.15;nan;-24016.63;5054160;28;20155;-69
2022/01/08 08:56:30;;;;;;;33.63;19.07;;;;;;;6.60;nan;-24001.19;5054023;28;20599;-69
2022/01/08 08:58:56;;;;;;;31.67;17.63;;;;;;;6.96;nan;-24011.25;5053865;28;20167;-68
2022/01/08 09:01:22;;;;;;;27.17;15.93;;;;;;;6.70;nan;-24004.00;5054094;28;20233;-69
2022/01/08 09:03:47;;;;;;;31.37;17.07;;;;;;;7.28;nan;-24020.31;5053970;28;20162;-69
2022/01/08 09:06:13;;;;;;;32.17;17.10;;;;;;;7.12;nan;-24015.78;5053529;28;20201;-69
2022/01/08 09:08:39;;;;;;;24.47;14.50;;;;;;;6.76;nan;-24005.72;5053894;28;20203;-68
2022/01/08 09:11:04;;;;;;;23.17;14.40;;;;;;;6.50;nan;-23998.34;5053892;28;20249;-68
2022/01/08 09:13:30;;;;;;;23.47;14.53;;;;;;;6.90;nan;-24009.69;5054172;28;20162;-69
2022/01/08 09:15:56;;;;;;;25.40;14.93;;;;;;;7.07;nan;-24014.50;5053615;28;20225;-70
2022/01/08 09:18:21;;;;;;;26.10;14.63;;;;;;;6.73;nan;-24004.72;5053992;28;20265;-69
2022/01/08 09:20:46;;;;;;;26.67;15.33;;;;;;;6.84;nan;-24007.84;5053445;28;20513;-68
2022/01/08 09:23:12;;;;;;;26.77;14.00;;;;;;;7.14;nan;-24016.22;5053584;28;20900;-70
2022/01/08 09:25:38;;;;;;;23.83;13.50;;;;;;;6.31;nan;-23992.94;5053651;28;20177;-69
2022/01/08 09:28:03;;;;;;;25.23;14.03;;;;;;;6.70;nan;-24004.00;5053417;28;20578;-69
2022/01/08 09:30:29;;;;;;;23.40;14.23;;;;;;;6.52;nan;-23998.91;5053553;28;20178;-69
2022/01/08 09:32:55;;;;;;;25.30;15.00;;;;;;;6.84;nan;-24008.00;5053576;28;20197;-69
2022/01/08 09:35:23;;;;;;;26.67;15.47;;;;;;;6.96;nan;-24011.25;5053082;28;20254;-69
2022/01/08 09:37:50;;;;;;;29.33;16.63;;;;;;;6.98;nan;-24011.94;5053323;28;20181;-69
2022/01/08 09:40:17;;;;;;;27.60;17.07;;;;;;;6.74;nan;-24005.16;5049718;28;20233;-67
2022/01/08 09:42:44;;;;;;;30.60;17.97;;;;;;;6.84;nan;-24008.00;5053292;28;20194;-69
2022/01/08 09:45:11;;;;;;;29.80;17.17;;;;;;;6.89;nan;-24009.41;5053107;28;20266;-69
2022/01/08 09:47:37;;;;;;;29.80;17.47;;;;;;;6.79;nan;-24006.56;5053177;28;20175;-69
2022/01/08 09:50:04;;;;;;;25.40;15.70;;;;;;;6.86;nan;-24008.41;5052472;28;20209;-68
2022/01/08 09:52:31;;;;;;;27.87;16.63;;;;;;;6.99;nan;-24012.09;5053006;28;20222;-69
2022/01/08 09:54:56;;;;;;;27.53;17.17;;;;;;;7.02;nan;-24013.09;5052822;28;20178;-69
2022/01/08 09:57:22;;;;;;;30.27;17.60;;;;;;;7.37;nan;-24022.72;5053054;28;20175;-70
2022/01/08 09:59:47;;;;;;;27.60;16.97;;;;;;;7.19;nan;-24017.63;5053011;28;20662;-71
2022/01/08 10:02:13;;;;;;;27.97;16.00;;;;;;;7.52;nan;-24027.13;5052775;28;20163;-69
2022/01/08 10:04:38;;;;;;;36.60;21.93;;;;;;;7.40;nan;-24023.72;5052382;28;20243;-69
2022/01/08 10:07:21;;;;;;;27.53;16.90;;;;;;;7.58;nan;-24028.53;5052352;28;20236;-69
2022/01/08 10:10:00;;;;;;;30.57;18.00;;;;;;;7.76;nan;-24033.66;5052673;28;20248;-70
2022/01/08 10:13:00;;;;;;;30.67;18.37;;;;;;;7.76;nan;-24033.78;5051597;28;20174;-70
2022/01/08 10:18:25;;;;;;;31.77;19.70;;;;;;;7.44;nan;-24024.72;5052911;28;20286;-70
2022/01/08 10:20:51;;;;;;;32.13;19.40;;;;;;;7.59;nan;-24028.97;5052216;28;20210;-69
2022/01/08 10:23:21;;;;;;;29.80;18.60;;;;;;;7.56;nan;-24028.13;5051846;28;20198;-69
2022/01/08 10:25:57;;;;;;;31.00;19.70;;;;;;;8.21;nan;-24046.25;5052393;28;20236;-70
2022/01/08 10:28:50;;;;;;;31.53;19.00;;;;;;;8.16;nan;-24044.97;5034172;28;20533;-69
2022/01/08 10:31:17;;;;;;;33.43;19.33;;;;;;;8.17;nan;-24045.13;5052145;28;20185;-69
2022/01/08 10:33:48;;;;;;;29.57;18.37;;;;;;;8.18;nan;-24045.41;5052065;28;20213;-69
2022/01/08 10:36:14;;;;;;;29.43;18.27;;;;;;;7.90;nan;-24037.75;5051878;28;20217;-70
2022/01/08 10:38:39;;;;;;;30.53;19.03;;;;;;;8.30;nan;-24048.94;5052054;28;20170;-69
2022/01/08 10:41:12;;;;;;;29.00;18.70;;;;;;;8.39;nan;-24051.34;5033562;28;20485;-69
2022/01/08 10:43:38;;;;;;;28.13;17.90;;;;;;;8.33;nan;-24049.66;5052006;28;20167;-69
2022/01/08 10:46:16;;;;;;;29.53;17.80;;;;;;;8.27;nan;-24047.94;5051678;28;20185;-69
2022/01/08 10:48:44;;;;;;;28.07;17.47;;;;;;;8.26;nan;-24047.66;5051861;28;20202;-69
2022/01/08 10:51:14;;;;;;;26.63;15.30;;;;;;;8.36;nan;-24050.50;5051792;28;20300;-69
2022/01/08 10:53:54;;;;;;;22.60;14.63;;;;;;;8.21;nan;-24046.25;5051737;28;20179;-69
2022/01/08 10:56:26;;;;;;;16.07;11.03;;;;;;;8.07;nan;-24042.44;5051651;28;20175;-69
2022/01/08 10:58:55;;;;;;;18.00;11.57;;;;;;;8.06;nan;-24042.00;5051481;28;20269;-68
2022/01/08 11:01:39;;;;;;;18.87;11.63;;;;;;;8.43;nan;-24052.63;5051627;28;20170;-69
2022/01/08 11:04:08;;;;;;;34.57;16.47;;;;;;;8.37;nan;-24050.78;5051438;28;20201;-63
2022/01/08 11:06:33;;;;;;;20.57;11.60;;;;;;;7.87;nan;-24036.75;5051437;28;20175;-61
2022/01/08 11:09:03;;;;;;;17.53;10.70;;;;;;;8.14;nan;-24044.28;5044859;28;20229;-64
2022/01/08 11:11:30;;;;;;;18.83;12.47;;;;;;;8.17;nan;-24045.25;5033340;28;20658;-63
2022/01/08 11:14:07;;;;;;;27.67;16.63;;;;;;;8.02;nan;-24041.00;5051430;28;20188;-64
2022/01/08 11:16:34;;;;;;;29.03;16.70;;;;;;;8.34;nan;-24049.94;5042119;28;20186;-65
2022/01/08 11:19:03;;;;;;;30.80;17.40;;;;;;;7.80;nan;-24034.91;5045373;28;20202;-65
2022/01/08 11:21:31;;;;;;;32.23;17.50;;;;;;;7.78;nan;-24034.22;5033264;28;20190;-64
2022/01/08 11:23:59;;;;;;;31.00;18.03;;;;;;;7.88;nan;-24037.03;5051061;28;20166;-64
2022/01/08 11:26:27;;;;;;;29.37;17.87;;;;;;;7.98;nan;-24040.03;5051301;28;20182;-64
2022/01/08 11:28:58;;;;;;;29.43;17.07;;;;;;;8.00;nan;-24040.59;5051155;28;20251;-71
2022/01/08 11:31:28;;;;;;;29.97;18.37;;;;;;;7.94;nan;-24038.88;5051364;28;20205;-71
2022/01/08 11:33:57;;;;;;;32.03;18.40;;;;;;;7.98;nan;-24040.03;5051348;28;20171;-71
2022/01/08 11:36:23;;;;;;;30.53;18.00;;;;;;;7.81;nan;-24035.22;5050980;28;20197;-72
2022/01/08 11:38:50;;;;;;;29.50;17.50;;;;;;;8.09;nan;-24043.00;5049359;28;20712;-72
2022/01/08 11:41:15;;;;;;;28.93;17.70;;;;;;;7.70;nan;-24032.09;5046386;28;20629;-71
2022/01/08 11:43:42;;;;;;;33.00;18.17;;;;;;;7.71;nan;-24032.38;5050941;28;20182;-71
2022/01/08 11:46:08;;;;;;;30.20;18.53;;;;;;;7.63;nan;-24030.09;5050764;28;20181;-72
2022/01/08 11:48:43;;;;;;;26.83;17.40;;;;;;;7.54;nan;-24027.56;5051011;28;20202;-72
2022/01/08 11:51:16;;;;;;;26.53;16.70;;;;;;;7.67;nan;-24031.25;5033354;28;20321;-72